Time;durP1;ratioP1;P1;durP2;ratioP2;P2;SDS_P1;SDS_P2;PMS_P1;PMS_P2;Temp;Humidity;BMP_temperature;BMP_pressure;BME280_temperature;BME280_humidity;BME280_pressure;Samples;Min_cycle;Max_cycle;Signal;HPM_P1;HPM_P2
2022/06/18 00:01:35;;;;;;;8.00;4.80;;;20.10;99.90;;;;;;5060162;28;20116;-80
2022/06/18 00:04:15;;;;;;;9.10;5.22;;;20.10;99.90;;;;;;5045414;28;20044;-81
2022/06/18 00:06:59;;;;;;;8.15;6.53;;;20.10;99.90;;;;;;5059628;28;20040;-81
2022/06/18 00:09:30;;;;;;;9.13;5.05;;;20.10;99.90;;;;;;5064143;28;20122;-84
2022/06/18 00:14:54;;;;;;;7.88;5.57;;;20.00;99.90;;;;;;5067311;28;20048;-80
2022/06/18 00:17:20;;;;;;;7.13;5.75;;;19.90;99.90;;;;;;5066559;28;20110;-76
2022/06/18 00:19:48;;;;;;;7.05;6.10;;;19.90;99.90;;;;;;5053886;28;20068;-82
2022/06/18 00:22:16;;;;;;;6.40;5.80;;;19.90;99.90;;;;;;5061177;28;20746;-82
2022/06/18 00:24:43;;;;;;;8.55;7.53;;;19.90;99.90;;;;;;5052127;28;20457;-81
2022/06/18 00:27:13;;;;;;;14.45;5.65;;;19.90;99.90;;;;;;5062383;28;20607;-77
2022/06/18 00:29:39;;;;;;;9.07;5.55;;;19.90;99.90;;;;;;5050271;28;20053;-79
2022/06/18 00:32:06;;;;;;;8.75;6.10;;;19.90;99.90;;;;;;5061270;28;20503;-80
2022/06/18 00:34:31;;;;;;;7.80;6.10;;;19.90;99.90;;;;;;5060926;28;20495;-82
2022/06/18 00:36:58;;;;;;;8.35;5.60;;;19.90;99.90;;;;;;5060889;28;20052;-81
2022/06/18 00:39:24;;;;;;;9.07;6.60;;;19.80;99.90;;;;;;5043696;28;20089;-81
2022/06/18 00:41:53;;;;;;;6.82;6.13;;;19.80;99.90;;;;;;5063455;28;20407;-82
2022/06/18 00:44:33;;;;;;;9.45;6.25;;;19.80;99.90;;;;;;5063282;28;20479;-80
2022/06/18 00:47:10;;;;;;;;;;;19.70;99.90;;;;;;5061578;28;20068;-80
2022/06/18 00:49:54;;;;;;;12.20;7.03;;;19.60;99.90;;;;;;5061927;28;19927;-81
2022/06/18 00:52:36;;;;;;;9.07;6.38;;;19.70;99.90;;;;;;5052022;28;20360;-76
2022/06/18 00:55:05;;;;;;;7.63;6.18;;;19.60;99.90;;;;;;5063353;28;21218;-80
2022/06/18 00:58:08;;;;;;;9.35;6.10;;;19.60;99.90;;;;;;5062073;28;20050;-80
2022/06/18 01:00:37;;;;;;;8.25;6.88;;;19.70;99.90;;;;;;5036034;28;20036;-81
2022/06/18 01:03:03;;;;;;;12.52;6.88;;;19.60;99.90;;;;;;5060845;28;20373;-76
2022/06/18 01:05:39;;;;;;;8.55;7.25;;;19.60;99.90;;;;;;5062597;28;20044;-81
2022/06/18 01:08:16;;;;;;;8.07;7.20;;;19.60;99.90;;;;;;5061768;28;20040;-81
2022/06/18 01:10:48;;;;;;;7.22;6.07;;;19.60;99.90;;;;;;5061847;28;20141;-81
2022/06/18 01:13:18;;;;;;;8.43;6.05;;;19.60;99.90;;;;;;5063557;28;20403;-81
2022/06/18 01:15:45;;;;;;;9.77;6.93;;;19.60;99.90;;;;;;5060281;28;20130;-82
2022/06/18 01:18:13;;;;;;;8.48;6.38;;;19.60;99.90;;;;;;5061091;28;20107;-81
2022/06/18 01:20:43;;;;;;;10.50;6.75;;;19.60;99.90;;;;;;5060605;28;20378;-78
2022/06/18 01:23:13;;;;;;;10.73;6.78;;;19.50;99.90;;;;;;5060571;28;20040;-80
2022/06/18 01:25:39;;;;;;;44.72;8.20;;;19.50;99.90;;;;;;5063027;28;20125;-80
2022/06/18 01:28:05;;;;;;;10.10;7.43;;;19.50;99.90;;;;;;5059415;28;20040;-81
2022/06/18 01:30:35;;;;;;;9.50;6.85;;;19.50;99.90;;;;;;5062535;28;20443;-82
2022/06/18 01:33:03;;;;;;;11.45;7.95;;;19.50;99.90;;;;;;5049208;28;20048;-80
2022/06/18 01:35:30;;;;;;;10.73;7.18;;;19.50;99.90;;;;;;5028961;28;20504;-82
2022/06/18 01:37:57;;;;;;;9.35;8.30;;;19.50;99.90;;;;;;5050230;28;20047;-82
2022/06/18 01:40:31;;;;;;;13.10;7.72;;;19.50;99.90;;;;;;5067053;28;20530;-81
2022/06/18 01:42:59;;;;;;;9.68;7.63;;;19.50;99.90;;;;;;5055807;28;20185;-80
2022/06/18 01:45:30;;;;;;;10.38;7.85;;;19.50;99.90;;;;;;5058388;28;20094;-80
2022/06/18 01:48:06;;;;;;;13.77;6.82;;;19.50;99.90;;;;;;5051568;28;20152;-81
2022/06/18 01:50:53;;;;;;;9.73;8.20;;;19.40;99.90;;;;;;5028694;28;20120;-80
2022/06/18 01:53:21;;;;;;;10.73;8.00;;;19.40;99.90;;;;;;5092424;22;20055;-75
2022/06/18 01:55:58;;;;;;;12.52;7.38;;;19.30;99.90;;;;;;5094720;28;20520;-81
2022/06/18 01:58:30;;;;;;;11.30;8.15;;;19.30;99.90;;;;;;5064906;28;20063;-81
2022/06/18 02:00:59;;;;;;;10.20;7.38;;;19.30;99.90;;;;;;5094499;28;20118;-80
2022/06/18 02:03:25;;;;;;;13.00;6.97;;;19.20;99.90;;;;;;5088896;28;20096;-81
2022/06/18 02:05:51;;;;;;;15.18;7.72;;;19.10;99.90;;;;;;5108179;28;20413;-81
2022/06/18 02:08:18;;;;;;;15.82;7.93;;;19.10;99.90;;;;;;5101262;28;20035;-81
2022/06/18 02:10:49;;;;;;;9.30;7.55;;;19.10;99.90;;;;;;5086672;28;20394;-81
2022/06/18 02:13:16;;;;;;;12.20;8.05;;;19.10;99.90;;;;;;5098739;28;20132;-82
2022/06/18 02:15:45;;;;;;;9.68;8.48;;;19.00;99.90;;;;;;5105821;28;20631;-81
2022/06/18 02:18:14;;;;;;;15.15;9.63;;;19.00;99.90;;;;;;5087863;28;20046;-81
2022/06/18 02:20:45;;;;;;;9.43;7.72;;;19.00;99.90;;;;;;5106338;28;20053;-78
2022/06/18 02:23:11;;;;;;;11.38;7.72;;;18.90;99.90;;;;;;5087513;28;21760;-80
2022/06/18 02:25:37;;;;;;;14.75;8.93;;;18.80;99.90;;;;;;5087939;28;20044;-81
2022/06/18 02:28:12;;;;;;;16.60;9.48;;;18.80;99.90;;;;;;5105256;28;20042;-78
2022/06/18 02:30:38;;;;;;;26.20;9.95;;;18.80;99.90;;;;;;5106801;28;20073;-81
2022/06/18 02:33:11;;;;;;;14.38;8.25;;;18.80;99.90;;;;;;5088158;28;20067;-76
2022/06/18 02:35:37;;;;;;;10.23;8.98;;;18.70;99.90;;;;;;5104173;28;20564;-81
2022/06/18 02:38:15;;;;;;;15.52;9.82;;;18.70;99.90;;;;;;5087853;28;20035;-81
2022/06/18 02:40:40;;;;;;;12.15;9.82;;;18.70;99.90;;;;;;5089081;28;20522;-80
2022/06/18 02:43:06;;;;;;;19.02;10.38;;;18.60;99.90;;;;;;5090889;28;20040;-82
2022/06/18 02:45:32;;;;;;;16.33;10.68;;;18.70;99.90;;;;;;5105459;28;20134;-82
2022/06/18 02:48:00;;;;;;;16.70;9.30;;;18.60;99.90;;;;;;5107766;28;20397;-80
2022/06/18 02:50:32;;;;;;;14.00;10.63;;;18.50;99.90;;;;;;5105048;28;20066;-82
2022/06/18 02:53:01;;;;;;;17.45;10.30;;;18.50;99.90;;;;;;5083626;28;20599;-82
2022/06/18 02:55:43;;;;;;;19.25;10.50;;;18.40;99.90;;;;;;5085645;28;20143;-81
2022/06/18 02:58:17;;;;;;;17.20;10.45;;;18.40;99.90;;;;;;5084120;28;20119;-81
2022/06/18 03:00:46;;;;;;;18.00;10.73;;;18.40;99.90;;;;;;5085526;28;20710;-81
2022/06/18 03:03:14;;;;;;;17.23;10.15;;;18.40;99.90;;;;;;5086785;28;20041;-81
2022/06/18 03:05:40;;;;;;;16.83;11.57;;;18.30;99.90;;;;;;5085320;28;20078;-78
2022/06/18 03:08:06;;;;;;;23.65;11.57;;;18.30;99.90;;;;;;5084274;28;20036;-82
2022/06/18 03:13:18;;;;;;;17.15;10.95;;;18.30;99.90;;;;;;5071147;28;20126;-82
2022/06/18 03:15:50;;;;;;;20.88;12.15;;;18.20;99.90;;;;;;5085500;28;20460;-81
2022/06/18 03:18:17;;;;;;;20.27;11.48;;;18.30;99.90;;;;;;5087058;28;20052;-80
2022/06/18 03:20:54;;;;;;;25.20;13.07;;;18.10;99.90;;;;;;5086523;28;20074;-82
2022/06/18 03:23:23;;;;;;;22.73;11.73;;;18.20;99.90;;;;;;5081879;28;20440;-81
2022/06/18 03:25:49;;;;;;;20.80;12.30;;;18.10;99.90;;;;;;5082380;28;20060;-74
2022/06/18 03:28:17;;;;;;;16.77;11.27;;;18.10;99.90;;;;;;5085098;28;20063;-81
2022/06/18 03:30:43;;;;;;;24.52;12.77;;;18.10;99.90;;;;;;5086606;28;20060;-79
2022/06/18 03:33:10;;;;;;;22.38;11.88;;;18.10;99.90;;;;;;5086237;28;20304;-77
2022/06/18 03:35:36;;;;;;;28.48;14.07;;;18.10;99.90;;;;;;5084167;28;20399;-81
2022/06/18 03:38:02;;;;;;;23.05;14.93;;;18.00;99.90;;;;;;5084190;28;20064;-81
2022/06/18 03:40:28;;;;;;;27.38;13.05;;;18.00;99.90;;;;;;5082706;28;20067;-83
2022/06/18 03:42:54;;;;;;;24.75;13.95;;;18.00;99.90;;;;;;5086185;28;20039;-82
2022/06/18 03:45:20;;;;;;;31.95;14.27;;;17.90;99.90;;;;;;5085776;28;20044;-80
2022/06/18 03:47:48;;;;;;;26.75;16.67;;;17.80;99.90;;;;;;5086623;28;20198;-82
2022/06/18 03:50:16;;;;;;;23.67;15.27;;;17.80;99.90;;;;;;5085453;28;20048;-82
2022/06/18 03:52:42;;;;;;;19.38;13.65;;;17.80;99.90;;;;;;5096522;28;20043;-80
2022/06/18 03:55:13;;;;;;;26.50;15.85;;;17.80;99.90;;;;;;5107314;28;20336;-81
2022/06/18 03:57:39;;;;;;;31.92;14.75;;;17.80;99.90;;;;;;5109429;28;20127;-80
2022/06/18 04:00:16;;;;;;;24.65;14.90;;;17.70;99.90;;;;;;5109907;28;20039;-82
2022/06/18 04:02:42;;;;;;;23.98;15.32;;;17.80;99.90;;;;;;5108884;28;20046;-82
2022/06/18 04:05:08;;;;;;;25.52;15.68;;;17.70;99.90;;;;;;5106462;28;20336;-83
2022/06/18 04:07:36;;;;;;;20.42;14.88;;;17.70;99.90;;;;;;5091004;28;20398;-84
2022/06/18 04:10:02;;;;;;;26.98;15.82;;;17.80;99.90;;;;;;5105668;28;20516;-83
2022/06/18 04:12:28;;;;;;;22.60;15.10;;;17.80;99.90;;;;;;5108493;28;20051;-83
2022/06/18 04:14:54;;;;;;;25.92;15.90;;;17.90;99.90;;;;;;5099807;28;20054;-83
2022/06/18 04:17:21;;;;;;;22.00;15.13;;;17.90;99.90;;;;;;5108852;28;20577;-80
2022/06/18 04:19:47;;;;;;;27.73;15.70;;;17.90;99.90;;;;;;5123439;28;20046;-82
2022/06/18 04:22:12;;;;;;;32.95;15.05;;;17.90;99.90;;;;;;5109286;28;20036;-81
2022/06/18 04:24:38;;;;;;;30.65;16.65;;;17.80;99.90;;;;;;5122344;28;20290;-76
2022/06/18 04:27:04;;;;;;;24.85;16.63;;;17.80;99.90;;;;;;5112650;28;20028;-76
2022/06/18 04:29:32;;;;;;;24.35;15.07;;;17.90;99.90;;;;;;5112738;28;20039;-82
2022/06/18 04:31:59;;;;;;;25.88;15.25;;;17.90;99.90;;;;;;5128927;28;20031;-81
2022/06/18 04:34:26;;;;;;;33.85;15.40;;;18.00;99.90;;;;;;5116061;28;20028;-81
2022/06/18 04:36:51;;;;;;;35.70;16.63;;;18.00;99.90;;;;;;5128971;28;20038;-81
2022/06/18 04:39:17;;;;;;;23.15;15.82;;;18.30;99.90;;;;;;5126849;28;20023;-81
2022/06/18 04:41:43;;;;;;;23.27;15.55;;;18.30;99.90;;;;;;5124690;28;20043;-81
2022/06/18 04:44:09;;;;;;;24.77;13.90;;;18.10;99.90;;;;;;5125125;28;20028;-77
2022/06/18 04:46:34;;;;;;;19.58;14.60;;;18.20;99.90;;;;;;5109605;28;20076;-81
2022/06/18 04:49:00;;;;;;;24.65;14.20;;;18.30;99.90;;;;;;5126787;28;20135;-82
2022/06/18 04:51:26;;;;;;;25.35;15.00;;;18.40;99.90;;;;;;5127543;28;20043;-79
2022/06/18 04:53:52;;;;;;;20.85;14.65;;;18.40;99.90;;;;;;5105841;28;20054;-83
2022/06/18 04:56:18;;;;;;;29.17;16.40;;;18.40;99.90;;;;;;5104029;28;20036;-81
2022/06/18 04:58:44;;;;;;;30.73;15.70;;;18.30;99.90;;;;;;5090478;28;20065;-81
2022/06/18 05:01:18;;;;;;;22.13;14.27;;;18.30;99.90;;;;;;5108138;28;20031;-81
2022/06/18 05:03:44;;;;;;;25.80;15.93;;;18.30;99.90;;;;;;5119374;28;20063;-81
2022/06/18 05:06:10;;;;;;;41.30;16.70;;;18.40;99.90;;;;;;5126158;28;20055;-81
2022/06/18 05:08:36;;;;;;;21.65;14.35;;;18.40;99.90;;;;;;5099437;28;20055;-80
2022/06/18 05:11:03;;;;;;;29.70;14.93;;;18.30;99.90;;;;;;5092462;28;20036;-77
2022/06/18 05:13:31;;;;;;;26.17;16.05;;;18.40;99.90;;;;;;5113826;28;20089;-82
2022/06/18 05:15:58;;;;;;;28.90;14.93;;;18.30;99.90;;;;;;5099433;28;20035;-82
2022/06/18 05:18:27;;;;;;;22.10;13.60;;;18.30;99.90;;;;;;5110374;28;20101;-82
2022/06/18 05:20:53;;;;;;;20.83;13.77;;;18.40;99.90;;;;;;5084090;28;20048;-81
2022/06/18 05:23:19;;;;;;;20.23;13.55;;;18.40;99.90;;;;;;5106489;28;20074;-81
2022/06/18 05:25:46;;;;;;;36.88;16.27;;;18.40;99.90;;;;;;5089884;28;20127;-81
2022/06/18 05:28:13;;;;;;;29.15;14.75;;;18.50;99.90;;;;;;5090446;28;20051;-82
2022/06/18 05:30:40;;;;;;;23.05;13.50;;;18.50;99.90;;;;;;5107710;28;20043;-80
2022/06/18 05:33:06;;;;;;;27.13;13.43;;;18.50;99.90;;;;;;5090551;28;20046;-80
2022/06/18 05:35:38;;;;;;;22.85;13.82;;;18.50;99.90;;;;;;5106041;28;21190;-82
2022/06/18 05:38:04;;;;;;;18.30;12.88;;;18.50;99.90;;;;;;5102754;28;20051;-80
2022/06/18 05:40:30;;;;;;;34.08;13.63;;;18.60;99.90;;;;;;5087775;28;20405;-83
2022/06/18 05:42:55;;;;;;;23.83;14.02;;;18.70;99.90;;;;;;5101686;28;20036;-84
2022/06/18 05:45:22;;;;;;;23.00;13.30;;;18.80;99.90;;;;;;5107313;28;20039;-81
2022/06/18 05:47:48;;;;;;;24.17;13.20;;;18.80;99.90;;;;;;5104702;28;20048;-84
2022/06/18 05:50:16;;;;;;;26.00;12.77;;;18.90;99.90;;;;;;5106482;28;20036;-84
2022/06/18 05:52:42;;;;;;;21.92;11.70;;;18.90;99.90;;;;;;5104498;28;20052;-84
2022/06/18 05:55:09;;;;;;;18.92;10.60;;;19.10;99.90;;;;;;5107587;28;20046;-78
2022/06/18 05:57:43;;;;;;;19.33;11.43;;;19.20;99.90;;;;;;5076813;28;20082;-84
2022/06/18 06:00:12;;;;;;;17.10;10.98;;;19.20;99.90;;;;;;5107418;28;20061;-78
2022/06/18 06:02:38;;;;;;;21.77;11.23;;;19.30;99.90;;;;;;5103251;28;20034;-83
2022/06/18 06:05:04;;;;;;;18.52;9.63;;;19.30;99.90;;;;;;5106117;28;20040;-77
2022/06/18 06:07:29;;;;;;;19.83;9.98;;;19.40;99.90;;;;;;5101841;28;20433;-82
2022/06/18 06:12:39;;;;;;;20.25;10.25;;;19.40;99.90;;;;;;5106986;28;20047;-74
2022/06/18 06:15:07;;;;;;;15.38;9.38;;;19.50;99.90;;;;;;5061349;28;20085;-81
2022/06/18 06:17:33;;;;;;;19.77;9.60;;;19.50;99.90;;;;;;5103364;28;20032;-85
2022/06/18 06:20:06;;;;;;;14.25;9.23;;;19.50;99.90;;;;;;5107448;28;20051;-90
2022/06/18 06:22:33;;;;;;;19.92;9.50;;;19.60;99.90;;;;;;5105595;28;20059;-82
2022/06/18 06:24:59;;;;;;;19.67;9.02;;;19.60;99.90;;;;;;5106507;28;20079;-81
2022/06/18 06:27:25;;;;;;;22.70;9.18;;;19.60;99.90;;;;;;5105116;28;20073;-82
2022/06/18 06:29:51;;;;;;;17.50;8.98;;;19.70;99.90;;;;;;5106692;28;20073;-84
2022/06/18 06:32:16;;;;;;;14.82;8.20;;;19.70;99.90;;;;;;5104988;28;20039;-85
2022/06/18 06:34:42;;;;;;;23.20;8.57;;;19.80;99.90;;;;;;5088083;28;20044;-84
2022/06/18 06:37:10;;;;;;;14.82;8.50;;;19.80;99.90;;;;;;5102763;28;20256;-84
2022/06/18 06:39:36;;;;;;;18.35;9.23;;;19.80;99.90;;;;;;5104372;28;20087;-84
2022/06/18 06:42:02;;;;;;;15.30;9.05;;;19.80;99.90;;;;;;5105615;28;20043;-83
2022/06/18 06:44:27;;;;;;;14.32;7.07;;;19.90;99.90;;;;;;5106351;28;20043;-85
2022/06/18 06:46:54;;;;;;;14.25;7.82;;;20.00;99.90;;;;;;5105839;28;20528;-86
2022/06/18 06:49:20;;;;;;;13.20;6.50;;;20.10;99.90;;;;;;5105074;28;20440;-84
2022/06/18 06:51:46;;;;;;;8.40;5.70;;;20.30;99.90;;;;;;5070266;28;20044;-85
2022/06/18 06:54:12;;;;;;;11.13;6.07;;;20.40;99.90;;;;;;5105208;28;20047;-84
2022/06/18 06:59:22;;;;;;;10.88;6.28;;;20.30;99.90;;;;;;5106478;28;20062;-84
2022/06/18 07:01:48;;;;;;;14.40;6.00;;;21.30;99.90;;;;;;5085561;28;20043;-83
2022/06/18 07:04:14;;;;;;;14.13;5.97;;;21.70;99.90;;;;;;5086067;28;20125;-86
2022/06/18 07:06:40;;;;;;;9.57;5.63;;;22.00;99.90;;;;;;5105468;28;20126;-80
2022/06/18 07:09:07;;;;;;;13.05;7.18;;;22.80;99.90;;;;;;5106956;28;20119;-85
2022/06/18 07:11:33;;;;;;;15.23;6.72;;;23.40;99.90;;;;;;5104918;28;20087;-85
2022/06/18 07:14:00;;;;;;;14.38;6.78;;;23.60;99.90;;;;;;5105404;28;20040;-86
2022/06/18 07:16:25;;;;;;;10.15;6.43;;;23.40;99.90;;;;;;5106759;28;20552;-85
2022/06/18 07:18:53;;;;;;;11.98;6.78;;;24.00;99.90;;;;;;5087666;28;20114;-84
2022/06/18 07:21:21;;;;;;;11.93;6.47;;;24.10;99.90;;;;;;5104320;28;20044;-78
2022/06/18 07:23:48;;;;;;;18.20;6.60;;;24.10;99.90;;;;;;5108174;28;20172;-86
2022/06/18 07:26:16;;;;;;;13.18;5.95;;;24.00;99.90;;;;;;5088867;28;20059;-83
2022/06/18 07:28:43;;;;;;;10.98;5.80;;;24.20;99.90;;;;;;5093336;28;20027;-87
2022/06/18 07:31:15;;;;;;;8.77;5.28;;;24.30;99.90;;;;;;5107413;28;20048;-82
2022/06/18 07:33:43;;;;;;;8.48;3.85;;;24.50;99.90;;;;;;5107255;28;20126;-85
2022/06/18 07:36:09;;;;;;;14.43;5.88;;;24.30;99.90;;;;;;5110107;28;20128;-80
2022/06/18 07:38:34;;;;;;;8.57;3.55;;;24.30;99.90;;;;;;5110304;28;20059;-85
2022/06/18 07:41:00;;;;;;;9.18;3.53;;;24.60;99.90;;;;;;5113800;28;20048;-87
2022/06/18 07:43:40;;;;;;;7.82;3.38;;;24.80;99.90;;;;;;5116869;28;20038;-85
2022/06/18 07:46:08;;;;;;;13.40;4.00;;;25.10;99.90;;;;;;5113967;28;20043;-90
2022/06/18 07:48:34;;;;;;;6.82;2.90;;;24.80;99.90;;;;;;5115777;28;20027;-88
2022/06/18 07:51:00;;;;;;;17.25;3.85;;;24.70;99.90;;;;;;5096446;28;20097;-89
2022/06/18 07:53:27;;;;;;;11.30;3.05;;;23.90;99.90;;;;;;5118114;28;20047;-85
2022/06/18 07:55:54;;;;;;;7.35;3.22;;;23.60;99.90;;;;;;5112054;28;20051;-86
2022/06/18 07:58:20;;;;;;;6.93;2.88;;;23.30;99.90;;;;;;5113903;28;20054;-79
2022/06/18 08:00:47;;;;;;;6.13;2.65;;;22.80;99.90;;;;;;5089273;28;20036;-81
2022/06/18 08:03:15;;;;;;;4.78;2.15;;;22.90;99.90;;;;;;5101226;28;20036;-78
2022/06/18 08:05:42;;;;;;;4.60;2.00;;;23.10;99.90;;;;;;5086345;28;20165;-80
2022/06/18 08:08:08;;;;;;;8.15;2.90;;;23.10;99.90;;;;;;5105547;28;20040;-81
2022/06/18 08:10:36;;;;;;;4.80;2.33;;;23.00;99.90;;;;;;5086031;28;20046;-82
2022/06/18 08:13:03;;;;;;;5.82;2.58;;;22.70;99.90;;;;;;5107600;28;20384;-90
2022/06/18 08:15:29;;;;;;;4.70;2.53;;;22.50;99.90;;;;;;5109134;28;20071;-90
2022/06/18 08:17:55;;;;;;;4.18;1.58;;;22.90;99.90;;;;;;5091996;28;20153;-89
2022/06/18 08:20:20;;;;;;;3.83;1.50;;;22.70;99.90;;;;;;5102302;28;20497;-83
2022/06/18 08:22:49;;;;;;;2.90;1.30;;;23.00;99.90;;;;;;5103189;28;20032;-79
2022/06/18 08:25:17;;;;;;;6.68;1.35;;;23.20;99.90;;;;;;5087437;28;20040;-90
2022/06/18 08:27:43;;;;;;;2.72;1.35;;;23.00;99.90;;;;;;5109651;28;20036;-91
2022/06/18 08:30:10;;;;;;;1.40;0.80;;;22.90;99.90;;;;;;5108507;28;20051;-87
2022/06/18 08:32:35;;;;;;;3.67;0.93;;;23.10;99.90;;;;;;5109857;28;20398;-90
2022/06/18 08:35:01;;;;;;;3.65;1.17;;;23.10;99.90;;;;;;5109574;28;20039;-90
2022/06/18 08:37:28;;;;;;;3.35;0.80;;;22.90;99.90;;;;;;5104825;28;20042;-90
2022/06/18 08:39:55;;;;;;;5.05;0.93;;;23.20;99.90;;;;;;5106226;28;20085;-89
2022/06/18 08:42:33;;;;;;;1.58;0.60;;;23.40;99.90;;;;;;5092962;28;20614;-81
2022/06/18 08:45:08;;;;;;;2.85;1.05;;;23.00;99.90;;;;;;5114208;28;20058;-90
2022/06/18 08:47:51;;;;;;;2.90;1.25;;;23.40;99.90;;;;;;5111241;28;20028;-88
2022/06/18 08:50:39;;;;;;;3.50;0.80;;;23.40;99.90;;;;;;5098209;28;20093;-80
2022/06/18 08:53:36;;;;;;;3.30;1.48;;;23.30;99.90;;;;;;5087203;28;20055;-91
2022/06/18 08:56:20;;;;;;;3.53;1.30;;;23.30;99.90;;;;;;5109996;28;20052;-91
2022/06/18 08:59:07;;;;;;;4.32;1.20;;;23.30;99.90;;;;;;5107775;28;20111;-88
2022/06/18 09:01:41;;;;;;;3.92;2.10;;;23.40;99.90;;;;;;5109856;28;20048;-89
2022/06/18 09:04:33;;;;;;;2.65;1.70;;;23.40;99.90;;;;;;5110037;28;20377;-93
2022/06/18 09:07:33;;;;;;;5.22;1.45;;;23.40;99.90;;;;;;5102793;28;20043;-87
2022/06/18 09:10:07;;;;;;;2.67;1.33;;;23.50;99.90;;;;;;5104439;28;20043;-88
2022/06/18 09:12:43;;;;;;;5.53;1.73;;;22.90;99.90;;;;;;5103651;28;20064;-87
2022/06/18 09:15:19;;;;;;;4.85;1.20;;;22.90;99.90;;;;;;5105372;28;20048;-81
2022/06/18 09:17:48;;;;;;;4.25;2.03;;;23.00;99.90;;;;;;5103331;28;20394;-87
2022/06/18 09:20:22;;;;;;;8.68;1.40;;;22.50;99.90;;;;;;5103980;28;20909;-86
2022/06/18 09:22:56;;;;;;;6.95;1.65;;;22.80;99.90;;;;;;5085530;28;20516;-88
2022/06/18 09:25:30;;;;;;;3.80;1.10;;;22.80;99.90;;;;;;5102566;28;20126;-85
2022/06/18 09:28:09;;;;;;;3.10;0.90;;;23.00;99.90;;;;;;5104185;28;20040;-90
2022/06/18 09:30:43;;;;;;;4.80;1.40;;;23.20;99.90;;;;;;5103890;28;20100;-89
2022/06/18 09:33:17;;;;;;;4.60;1.08;;;23.40;99.90;;;;;;5103457;28;21470;-85
2022/06/18 09:36:02;;;;;;;2.83;0.70;;;22.90;99.90;;;;;;5100628;28;20027;-91
2022/06/18 09:38:33;;;;;;;3.65;1.10;;;23.20;99.90;;;;;;5106215;28;20054;-92
2022/06/18 09:41:08;;;;;;;4.45;1.52;;;23.20;99.90;;;;;;5094124;28;20849;-90
2022/06/18 09:43:42;;;;;;;1.90;1.00;;;23.20;99.90;;;;;;5106132;28;20524;-89
2022/06/18 09:46:34;;;;;;;3.92;1.08;;;23.10;99.90;;;;;;5106166;28;20040;-91
2022/06/18 09:49:00;;;;;;;4.30;1.40;;;22.90;99.90;;;;;;5105351;28;20040;-79
2022/06/18 09:51:33;;;;;;;3.47;1.65;;;23.50;99.90;;;;;;5103799;28;20076;-90
2022/06/18 09:54:04;;;;;;;5.80;1.40;;;23.20;99.90;;;;;;5106520;28;20055;-89
2022/06/18 09:56:35;;;;;;;4.10;1.35;;;23.30;99.90;;;;;;5108805;28;20106;-90
2022/06/18 09:59:28;;;;;;;7.10;2.38;;;23.50;99.90;;;;;;5103317;28;20058;-85
2022/06/18 10:01:55;;;;;;;3.13;1.20;;;23.70;99.90;;;;;;5096449;28;20457;-90
2022/06/18 10:07:28;;;;;;;3.88;1.50;;;23.80;99.90;;;;;;5114011;28;20043;-88
2022/06/18 10:10:18;;;;;;;3.47;1.23;;;23.70;99.90;;;;;;5116979;28;20044;-87
2022/06/18 10:12:48;;;;;;;3.28;1.30;;;23.40;99.90;;;;;;5099888;28;20059;-86
2022/06/18 10:15:17;;;;;;;2.47;1.63;;;23.60;99.90;;;;;;5104197;28;20031;-85
2022/06/18 10:18:12;;;;;;;5.90;2.20;;;23.50;99.90;;;;;;5105743;28;20044;-86
2022/06/18 10:20:43;;;;;;;4.65;1.13;;;23.80;99.90;;;;;;5068821;28;20522;-85
2022/06/18 10:23:38;;;;;;;2.45;0.63;;;23.80;99.90;;;;;;5087678;28;20398;-83
2022/06/18 10:26:20;;;;;;;4.95;1.70;;;24.10;99.90;;;;;;5105151;28;20043;-84
2022/06/18 10:28:45;;;;;;;4.97;1.40;;;23.90;99.90;;;;;;5107505;28;20065;-85
2022/06/18 10:31:41;;;;;;;4.57;1.27;;;23.90;99.90;;;;;;5104304;28;20039;-86
2022/06/18 10:34:16;;;;;;;4.95;1.05;;;24.20;99.90;;;;;;5088297;28;20047;-84
2022/06/18 10:37:11;;;;;;;3.75;0.98;;;24.00;99.90;;;;;;5103371;28;20059;-85
2022/06/18 10:40:03;;;;;;;3.30;1.15;;;24.10;99.90;;;;;;5103365;28;20565;-84
2022/06/18 10:42:54;;;;;;;2.75;1.20;;;24.10;99.90;;;;;;5101405;28;20051;-84
2022/06/18 10:45:33;;;;;;;1.98;1.17;;;24.50;99.90;;;;;;5095662;28;20039;-82
2022/06/18 10:48:00;;;;;;;2.75;0.90;;;24.20;99.90;;;;;;5103189;28;20055;-84
2022/06/18 10:50:26;;;;;;;2.78;0.95;;;23.80;99.90;;;;;;5104767;28;20066;-85
2022/06/18 10:53:00;;;;;;;2.65;0.77;;;24.10;99.90;;;;;;5088532;28;20055;-84
2022/06/18 10:55:26;;;;;;;5.57;1.15;;;24.20;99.90;;;;;;5103418;28;20071;-84
2022/06/18 10:57:52;;;;;;;4.25;1.23;;;24.40;99.90;;;;;;5103177;28;20618;-83
2022/06/18 11:00:25;;;;;;;2.50;0.70;;;24.50;99.90;;;;;;5106045;28;20039;-85
2022/06/18 11:02:56;;;;;;;1.40;0.50;;;24.40;99.90;;;;;;5105546;28;20039;-87
2022/06/18 11:05:36;;;;;;;2.80;0.75;;;24.40;99.90;;;;;;5105352;28;20143;-84
2022/06/18 11:08:16;;;;;;;5.32;1.63;;;24.30;99.90;;;;;;5104306;28;20142;-86
2022/06/18 11:10:56;;;;;;;6.55;1.58;;;24.20;99.90;;;;;;5104495;28;20075;-84
2022/06/18 11:13:25;;;;;;;1.40;0.70;;;24.50;99.90;;;;;;5106318;28;20727;-79
2022/06/18 11:16:12;;;;;;;4.32;1.08;;;24.30;99.90;;;;;;5104911;28;20046;-84
2022/06/18 11:19:14;;;;;;;1.55;0.80;;;24.10;99.90;;;;;;5097904;28;20032;-84
2022/06/18 11:21:44;;;;;;;14.25;4.00;;;23.60;99.90;;;;;;5087916;28;20093;-84
2022/06/18 11:24:15;;;;;;;2.33;0.50;;;23.90;99.90;;;;;;5105484;28;20312;-83
2022/06/18 11:26:56;;;;;;;1.95;0.70;;;24.10;99.90;;;;;;5099431;28;21129;-86
2022/06/18 11:29:40;;;;;;;4.60;0.70;;;24.60;99.90;;;;;;5077167;28;20085;-85
2022/06/18 11:32:15;;;;;;;2.35;0.70;;;24.60;99.90;;;;;;5104781;28;20118;-85
2022/06/18 11:34:49;;;;;;;4.32;1.00;;;24.70;99.90;;;;;;5090240;28;20424;-85
2022/06/18 11:37:22;;;;;;;4.68;0.95;;;24.90;99.90;;;;;;5102627;28;20040;-83
2022/06/18 11:40:15;;;;;;;1.52;0.50;;;24.40;99.90;;;;;;5086239;28;20052;-83
2022/06/18 11:42:48;;;;;;;4.18;1.27;;;24.60;99.90;;;;;;5095554;28;20092;-84
2022/06/18 11:45:37;;;;;;;4.80;0.70;;;24.60;99.90;;;;;;5108417;28;20048;-85
2022/06/18 11:48:26;;;;;;;4.10;0.82;;;24.20;99.90;;;;;;5105728;28;20537;-79
2022/06/18 11:51:05;;;;;;;2.05;0.50;;;24.50;99.90;;;;;;5104382;28;20239;-82
2022/06/18 11:54:10;;;;;;;4.28;0.98;;;24.70;99.90;;;;;;5085020;28;20095;-82
2022/06/18 11:57:00;;;;;;;4.50;0.90;;;24.00;99.90;;;;;;5103076;28;20093;-82
2022/06/18 11:59:52;;;;;;;;;;;24.40;99.90;;;;;;5100486;28;20035;-83
2022/06/18 12:02:43;;;;;;;2.85;0.68;;;24.60;99.90;;;;;;5103242;27;20385;-82
2022/06/18 12:05:15;;;;;;;6.43;2.42;;;24.60;99.90;;;;;;5101072;28;20048;-79
2022/06/18 12:07:50;;;;;;;2.55;1.38;;;25.00;99.90;;;;;;5103538;28;20118;-83
2022/06/18 12:10:18;;;;;;;6.55;0.98;;;25.10;99.90;;;;;;5086175;28;20105;-85
2022/06/18 12:13:08;;;;;;;2.28;0.80;;;24.40;99.90;;;;;;5085168;28;20048;-85
2022/06/18 12:16:11;;;;;;;4.13;0.93;;;25.00;99.90;;;;;;5103458;28;20031;-83
2022/06/18 12:19:05;;;;;;;3.42;0.60;;;25.30;99.90;;;;;;5100447;28;20550;-82
2022/06/18 12:21:43;;;;;;;2.28;0.80;;;25.00;99.90;;;;;;5075259;28;20056;-82
2022/06/18 12:24:21;;;;;;;9.70;2.60;;;24.50;99.90;;;;;;5102165;28;20589;-81
2022/06/18 12:27:10;;;;;;;3.03;1.13;;;23.90;99.90;;;;;;5102788;28;20563;-78
2022/06/18 12:29:49;;;;;;;3.75;1.20;;;23.80;99.90;;;;;;5103078;28;20032;-82
2022/06/18 12:32:33;;;;;;;4.53;0.80;;;23.20;99.90;;;;;;5084397;28;20043;-82
2022/06/18 12:35:16;;;;;;;3.78;0.85;;;22.90;99.90;;;;;;5099682;28;20414;-81
2022/06/18 12:38:02;;;;;;;5.50;1.10;;;22.90;99.90;;;;;;5099569;28;20083;-83
2022/06/18 12:41:10;;;;;;;4.85;1.50;;;22.80;99.90;;;;;;5102690;28;20446;-78
2022/06/18 12:44:02;;;;;;;5.30;1.75;;;22.60;99.90;;;;;;5103067;28;20047;-80
2022/06/18 12:46:36;;;;;;;3.15;1.20;;;22.70;99.90;;;;;;5101720;28;20054;-78
2022/06/18 12:49:19;;;;;;;3.47;1.17;;;22.50;99.90;;;;;;5101648;28;20039;-79
2022/06/18 12:51:52;;;;;;;6.85;1.70;;;22.40;99.90;;;;;;5082441;28;20035;-77
2022/06/18 12:54:21;;;;;;;4.85;2.08;;;22.60;99.90;;;;;;5103520;28;20055;-78
2022/06/18 12:56:59;;;;;;;5.88;1.23;;;22.40;99.90;;;;;;5100022;28;20039;-78
2022/06/18 12:59:34;;;;;;;4.72;1.33;;;22.20;99.90;;;;;;5101699;28;20464;-77
2022/06/18 13:02:18;;;;;;;11.25;3.08;;;22.20;99.90;;;;;;5101116;28;20401;-77
2022/06/18 13:05:25;;;;;;;5.20;1.73;;;22.30;99.90;;;;;;5099542;28;20044;-80
2022/06/18 13:08:16;;;;;;;7.13;2.10;;;22.60;99.90;;;;;;5071071;28;20060;-80
2022/06/18 13:10:47;;;;;;;6.60;1.42;;;22.30;99.90;;;;;;5084538;28;20117;-80
2022/06/18 13:13:44;;;;;;;6.90;1.73;;;22.20;99.90;;;;;;5099683;28;20044;-79
2022/06/18 13:16:21;;;;;;;11.85;2.65;;;22.30;99.90;;;;;;5101404;28;20051;-79
2022/06/18 13:19:17;;;;;;;7.88;1.45;;;22.40;99.90;;;;;;5098843;28;20040;-80
2022/06/18 13:21:47;;;;;;;7.83;1.97;;;22.00;99.90;;;;;;5074779;28;20051;-80